createdAt,value
2023-03-26T00:01:16.456Z,97.10
2023-03-26T00:03:47.055Z,97.20
2023-03-26T00:06:15.566Z,97.10
2023-03-26T00:08:44.901Z,97.60
2023-03-26T00:11:13.729Z,97.60
2023-03-26T00:13:43.636Z,97.50
2023-03-26T00:16:15.866Z,97.30
2023-03-26T00:18:43.641Z,97.40
2023-03-26T00:21:16.771Z,97.00
2023-03-26T00:23:44.281Z,97.20
2023-03-26T00:26:11.317Z,97.10
2023-03-26T00:28:40.448Z,97.20
2023-03-26T00:31:12.671Z,97.30
2023-03-26T00:33:40.804Z,97.20
2023-03-26T00:36:11.105Z,97.10
2023-03-26T00:38:39.381Z,97.50
2023-03-26T00:41:17.540Z,97.60
2023-03-26T00:43:48.752Z,97.50
2023-03-26T00:46:17.495Z,97.60
2023-03-26T00:48:46.031Z,97.60
2023-03-26T00:51:17.584Z,97.90
2023-03-26T00:53:46.382Z,97.70
2023-03-26T00:56:13.881Z,97.50
2023-03-26T00:58:40.986Z,97.70
2023-03-26T01:01:13.574Z,98.00
2023-03-26T01:03:45.717Z,98.00
2023-03-26T01:06:27.748Z,98.20
2023-03-26T01:09:00.077Z,98.20
2023-03-26T01:11:30.093Z,97.90
2023-03-26T01:14:10.242Z,97.80
2023-03-26T01:16:37.154Z,97.80
2023-03-26T01:19:16.433Z,97.80
2023-03-26T01:21:43.146Z,97.50
2023-03-26T01:24:10.366Z,97.50
2023-03-26T01:26:40.603Z,97.30
2023-03-26T01:29:13.653Z,97.30
2023-03-26T01:32:04.287Z,97.30
2023-03-26T01:35:19.036Z,97.30
2023-03-26T01:37:48.307Z,97.20
2023-03-26T01:40:26.684Z,97.20
2023-03-26T01:43:23.986Z,97.10
2023-03-26T01:45:51.858Z,97.60
2023-03-26T01:48:18.802Z,97.20
2023-03-26T01:50:45.997Z,97.30
2023-03-26T01:53:14.449Z,97.20
2023-03-26T01:56:25.905Z,97.60
2023-03-26T01:59:18.803Z,97.30
2023-03-26T02:02:09.671Z,97.30
2023-03-26T02:04:39.101Z,97.40
2023-03-26T02:07:09.217Z,97.30
2023-03-26T02:09:45.698Z,97.40
2023-03-26T02:12:14.733Z,97.40
2023-03-26T02:14:42.935Z,97.30
2023-03-26T02:17:10.826Z,97.10
2023-03-26T02:19:41.847Z,97.10
2023-03-26T02:22:15.591Z,97.10
2023-03-26T02:24:43.621Z,97.10
2023-03-26T02:27:12.298Z,97.60
2023-03-26T02:29:40.413Z,97.70
2023-03-26T02:32:08.794Z,97.80
2023-03-26T02:34:36.673Z,97.80
2023-03-26T02:37:03.364Z,97.50
2023-03-26T02:39:30.101Z,97.70
2023-03-26T02:41:56.846Z,97.80
2023-03-26T02:44:23.530Z,97.50
2023-03-26T02:46:50.320Z,97.40
2023-03-26T02:49:16.964Z,97.50
2023-03-26T02:51:43.595Z,97.30
2023-03-26T02:54:10.388Z,97.30
2023-03-26T02:56:37.459Z,97.50
2023-03-26T02:59:04.280Z,97.20
2023-03-26T03:01:34.897Z,97.10
2023-03-26T03:04:04.160Z,97.20
2023-03-26T03:06:30.927Z,97.30
2023-03-26T03:08:57.557Z,97.30
2023-03-26T03:11:27.173Z,97.60
2023-03-26T03:13:54.383Z,97.70
2023-03-26T03:16:21.294Z,97.20
2023-03-26T03:18:54.248Z,97.10
2023-03-26T03:21:21.853Z,97.10
2023-03-26T03:23:48.585Z,96.90
2023-03-26T03:26:21.797Z,97.00
2023-03-26T03:28:51.811Z,96.90
2023-03-26T03:31:18.810Z,96.80
2023-03-26T03:33:46.464Z,96.70
2023-03-26T03:36:22.063Z,96.80
2023-03-26T03:38:49.988Z,97.10
2023-03-26T03:41:18.496Z,97.30
2023-03-26T03:43:45.673Z,97.30
2023-03-26T03:46:12.417Z,97.40
2023-03-26T03:48:39.153Z,97.60
2023-03-26T03:51:06.374Z,97.60
2023-03-26T03:53:36.878Z,97.60
2023-03-26T03:56:04.809Z,97.80
2023-03-26T03:58:31.550Z,97.80
2023-03-26T04:01:00.839Z,97.80
2023-03-26T04:03:33.049Z,97.90
2023-03-26T04:06:01.198Z,98.00
2023-03-26T04:08:27.887Z,97.70
2023-03-26T04:10:54.575Z,98.40
2023-03-26T04:13:21.549Z,98.20
2023-03-26T04:15:48.360Z,98.30
2023-03-26T04:18:15.282Z,98.00
2023-03-26T04:20:46.495Z,98.00
2023-03-26T04:23:18.919Z,98.40
2023-03-26T04:25:49.201Z,98.40
2023-03-26T04:28:31.137Z,98.20
2023-03-26T04:31:01.330Z,98.30
2023-03-26T04:33:33.538Z,98.40
2023-03-26T04:36:02.834Z,98.50
2023-03-26T04:38:35.537Z,98.30
2023-03-26T04:41:04.416Z,98.30
2023-03-26T04:43:35.369Z,98.40
2023-03-26T04:46:03.322Z,98.50
2023-03-26T04:48:30.375Z,98.60
2023-03-26T04:50:57.618Z,98.50
2023-03-26T04:53:24.641Z,98.50
2023-03-26T04:56:06.882Z,98.60
2023-03-26T04:58:34.074Z,98.50
2023-03-26T05:01:10.414Z,98.50
2023-03-26T05:03:41.119Z,98.40
2023-03-26T05:06:10.490Z,98.70
2023-03-26T05:08:37.164Z,98.70
2023-03-26T05:11:07.330Z,98.70
2023-03-26T05:13:33.973Z,98.60
2023-03-26T05:16:00.599Z,98.70
2023-03-26T05:18:27.300Z,98.60
2023-03-26T05:20:54.205Z,98.60
2023-03-26T05:23:21.194Z,98.50
2023-03-26T05:25:47.814Z,98.60
2023-03-26T05:28:14.772Z,99.20
2023-03-26T05:30:43.585Z,99.60
2023-03-26T05:33:10.447Z,99.90
2023-03-26T05:35:37.451Z,99.90
2023-03-26T05:38:04.071Z,99.90
2023-03-26T05:40:32.754Z,99.90
2023-03-26T05:42:59.399Z,99.90
2023-03-26T05:45:26.066Z,99.90
2023-03-26T05:47:54.795Z,99.90
2023-03-26T05:50:22.085Z,99.90
2023-03-26T05:52:48.854Z,99.90
2023-03-26T05:55:15.970Z,99.90
2023-03-26T05:57:42.841Z,99.90
2023-03-26T06:00:11.503Z,99.90
2023-03-26T06:02:38.875Z,99.90
2023-03-26T06:05:05.844Z,99.90
2023-03-26T06:07:33.817Z,99.90
2023-03-26T06:10:00.762Z,99.90
2023-03-26T06:12:27.474Z,99.90
2023-03-26T06:14:54.125Z,99.90
2023-03-26T06:17:20.734Z,99.90
2023-03-26T06:19:47.911Z,99.90
2023-03-26T06:22:14.666Z,99.90
2023-03-26T06:24:41.247Z,99.90
2023-03-26T06:27:08.001Z,99.90
2023-03-26T06:29:34.615Z,99.90
2023-03-26T06:32:12.355Z,99.90
2023-03-26T06:34:45.526Z,99.90
2023-03-26T06:37:12.161Z,99.90
2023-03-26T06:39:38.919Z,99.90
2023-03-26T06:42:05.627Z,99.90
2023-03-26T06:44:32.358Z,99.90
2023-03-26T06:46:59.010Z,99.90
2023-03-26T06:49:25.775Z,99.90
2023-03-26T06:51:52.475Z,99.90
2023-03-26T06:54:19.132Z,99.90
2023-03-26T06:56:46.152Z,99.90
2023-03-26T06:59:12.862Z,99.90
2023-03-26T07:01:39.942Z,99.90
2023-03-26T07:04:06.942Z,99.90
2023-03-26T07:06:33.644Z,99.90
2023-03-26T07:09:00.354Z,99.90
2023-03-26T07:11:27.174Z,99.90
2023-03-26T07:13:56.236Z,99.90
2023-03-26T07:16:23.074Z,99.90
2023-03-26T07:18:49.744Z,99.90
2023-03-26T07:21:17.189Z,99.90
2023-03-26T07:23:44.134Z,99.90
2023-03-26T07:26:36.245Z,99.90
2023-03-26T07:29:23.008Z,99.90
2023-03-26T07:32:05.785Z,99.90
2023-03-26T07:34:51.952Z,99.90
2023-03-26T07:37:45.645Z,99.90
2023-03-26T07:40:33.400Z,99.90
2023-03-26T07:43:20.926Z,99.90
2023-03-26T07:45:48.017Z,99.90
2023-03-26T07:48:19.007Z,99.90
2023-03-26T07:50:46.411Z,99.90
2023-03-26T07:53:13.564Z,99.90
2023-03-26T07:56:19.944Z,99.90
2023-03-26T07:59:04.325Z,99.90
2023-03-26T08:01:55.278Z,99.90
2023-03-26T08:04:40.485Z,99.90
2023-03-26T08:07:30.554Z,99.90
2023-03-26T08:10:08.211Z,99.90
2023-03-26T08:13:14.536Z,99.90
2023-03-26T08:15:53.353Z,99.90
2023-03-26T08:18:39.037Z,99.90
2023-03-26T08:21:11.960Z,99.90
2023-03-26T08:23:51.842Z,99.90
2023-03-26T08:26:30.601Z,99.90
2023-03-26T08:29:16.109Z,99.90
2023-03-26T08:31:45.884Z,99.90
2023-03-26T08:34:13.428Z,99.90
2023-03-26T08:36:40.390Z,99.90
2023-03-26T08:39:08.888Z,99.90
2023-03-26T08:41:35.815Z,99.90
2023-03-26T08:44:36.310Z,99.90
2023-03-26T08:47:42.833Z,99.90
2023-03-26T08:50:38.065Z,99.90
2023-03-26T08:53:19.676Z,99.90
2023-03-26T08:55:56.993Z,99.90
2023-03-26T08:58:26.396Z,99.90
2023-03-26T09:01:05.188Z,99.90
2023-03-26T09:03:50.643Z,99.90
2023-03-26T09:06:32.250Z,99.90
2023-03-26T09:09:05.136Z,99.90
2023-03-26T09:11:38.454Z,99.90
2023-03-26T09:14:39.388Z,99.90
2023-03-26T09:17:49.503Z,99.90
2023-03-26T09:20:49.414Z,99.90
2023-03-26T09:23:49.676Z,99.90
2023-03-26T09:26:35.503Z,99.90
2023-03-26T09:29:11.246Z,99.90
2023-03-26T09:32:02.487Z,99.90
2023-03-26T09:34:45.734Z,99.90
2023-03-26T09:37:57.574Z,99.90
2023-03-26T09:40:55.962Z,99.90
2023-03-26T09:43:58.771Z,99.90
2023-03-26T09:46:31.310Z,99.90
2023-03-26T09:49:25.576Z,99.90
2023-03-26T09:52:13.107Z,99.90
2023-03-26T09:54:49.003Z,99.90
2023-03-26T09:57:28.336Z,99.90
2023-03-26T10:00:25.794Z,99.90
2023-03-26T10:03:11.648Z,99.90
2023-03-26T10:05:51.940Z,99.90
2023-03-26T10:08:32.384Z,99.90
2023-03-26T10:11:25.409Z,99.90
2023-03-26T10:14:18.488Z,99.90
2023-03-26T10:16:52.484Z,99.90
2023-03-26T10:19:41.608Z,99.90
2023-03-26T10:22:52.527Z,99.90
2023-03-26T10:25:33.932Z,99.90
2023-03-26T10:28:20.902Z,99.90
2023-03-26T10:31:00.283Z,99.90
2023-03-26T10:33:53.426Z,99.90
2023-03-26T10:36:43.065Z,99.90
2023-03-26T10:39:48.764Z,99.90
2023-03-26T10:42:37.051Z,99.90
2023-03-26T10:45:36.375Z,98.10
2023-03-26T10:48:27.727Z,95.80
2023-03-26T10:51:15.969Z,96.10
2023-03-26T10:53:58.299Z,94.90
2023-03-26T10:56:49.355Z,92.90
2023-03-26T10:59:17.651Z,92.40
2023-03-26T11:01:55.930Z,92.40
2023-03-26T11:04:48.513Z,90.70
2023-03-26T11:07:22.538Z,90.30
2023-03-26T11:10:04.323Z,86.60
2023-03-26T11:12:57.400Z,86.10
2023-03-26T11:15:38.719Z,87.70
2023-03-26T11:18:58.294Z,86.30
2023-03-26T11:21:34.299Z,84.00
2023-03-26T11:24:05.498Z,84.30
2023-03-26T11:26:39.430Z,83.70
2023-03-26T11:29:31.782Z,83.80
2023-03-26T11:32:12.537Z,84.10
2023-03-26T11:35:11.675Z,82.10
2023-03-26T11:37:46.379Z,82.90
2023-03-26T11:40:27.871Z,83.90
2023-03-26T11:43:18.730Z,81.90
2023-03-26T11:45:48.064Z,81.30
2023-03-26T11:48:22.061Z,80.20
2023-03-26T11:50:53.530Z,81.90
2023-03-26T11:53:24.609Z,82.10
2023-03-26T11:56:03.713Z,81.50
2023-03-26T11:58:39.004Z,81.30
2023-03-26T12:01:15.388Z,82.20
2023-03-26T12:03:42.144Z,80.20
2023-03-26T12:06:25.722Z,79.60
2023-03-26T12:08:54.384Z,78.50
2023-03-26T12:11:28.145Z,78.00
2023-03-26T12:14:01.144Z,76.90
2023-03-26T12:16:28.492Z,75.20
2023-03-26T12:19:18.487Z,72.60
2023-03-26T12:21:50.594Z,72.80
2023-03-26T12:24:34.965Z,74.10
2023-03-26T12:27:25.503Z,73.70
2023-03-26T12:29:54.983Z,73.20
2023-03-26T12:32:22.528Z,74.30
2023-03-26T12:34:52.374Z,71.90
2023-03-26T12:37:37.663Z,74.10
2023-03-26T12:40:25.565Z,74.20
2023-03-26T12:44:53.177Z,73.80
2023-03-26T12:45:43.696Z,68.70
2023-03-26T12:48:14.031Z,65.60
2023-03-26T12:50:51.290Z,64.40
2023-03-26T12:53:42.938Z,64.70
2023-03-26T12:56:19.873Z,66.40
2023-03-26T12:59:13.092Z,67.70
2023-03-26T13:01:50.867Z,68.40
2023-03-26T13:04:39.067Z,64.80
2023-03-26T13:07:28.729Z,63.10
2023-03-26T13:10:26.261Z,62.40
2023-03-26T13:13:11.120Z,64.00
2023-03-26T13:15:52.027Z,63.40
2023-03-26T13:18:37.723Z,63.70
2023-03-26T13:21:23.701Z,63.10
2023-03-26T13:24:09.008Z,61.40
2023-03-26T13:26:54.187Z,61.10
2023-03-26T13:29:33.515Z,60.20
2023-03-26T13:32:29.695Z,61.20
2023-03-26T13:35:15.815Z,58.70
2023-03-26T13:38:01.248Z,57.30
2023-03-26T13:40:57.615Z,56.80
2023-03-26T13:44:02.009Z,57.60
2023-03-26T13:46:40.817Z,58.10
2023-03-26T13:49:29.086Z,56.20
2023-03-26T13:51:57.689Z,55.70
2023-03-26T13:54:31.313Z,56.80
2023-03-26T13:57:31.930Z,57.20
2023-03-26T14:00:06.215Z,57.60
2023-03-26T14:02:38.603Z,58.20
2023-03-26T14:05:15.713Z,58.20
2023-03-26T14:07:49.557Z,59.10
2023-03-26T14:10:31.134Z,58.00
2023-03-26T14:13:21.425Z,58.50
2023-03-26T14:15:59.140Z,59.20
2023-03-26T14:18:37.909Z,60.40
2023-03-26T14:21:16.720Z,62.70
2023-03-26T14:24:00.591Z,64.20
2023-03-26T14:26:58.317Z,65.00
2023-03-26T14:30:01.390Z,64.80
2023-03-26T14:32:36.884Z,65.00
2023-03-26T14:35:31.508Z,67.10
2023-03-26T14:38:32.925Z,71.80
2023-03-26T14:41:10.080Z,76.20
2023-03-26T14:43:55.449Z,79.40
2023-03-26T14:46:44.961Z,83.10
2023-03-26T14:49:36.206Z,85.60
2023-03-26T14:52:33.068Z,87.00
2023-03-26T14:55:05.476Z,88.30
2023-03-26T14:57:44.470Z,91.70
2023-03-26T15:00:39.245Z,93.30
2023-03-26T15:03:38.613Z,93.60
2023-03-26T15:06:05.455Z,94.70
2023-03-26T15:08:35.308Z,93.90
2023-03-26T15:11:29.781Z,93.50
2023-03-26T15:14:28.818Z,93.40
2023-03-26T15:17:28.834Z,93.50
2023-03-26T15:20:32.686Z,92.10
2023-03-26T15:23:17.901Z,92.00
2023-03-26T15:26:28.882Z,91.70
2023-03-26T15:29:10.867Z,91.70
2023-03-26T15:31:56.596Z,91.80
2023-03-26T15:34:48.574Z,92.00
2023-03-26T15:37:47.878Z,92.20
2023-03-26T15:40:32.524Z,92.40
2023-03-26T15:43:10.796Z,93.80
2023-03-26T15:46:09.563Z,93.60
2023-03-26T15:49:00.723Z,94.10
2023-03-26T15:51:46.905Z,94.30
2023-03-26T15:54:22.635Z,94.80
2023-03-26T15:57:02.187Z,94.60
2023-03-26T15:59:56.222Z,94.80
2023-03-26T16:02:30.898Z,94.90
2023-03-26T16:05:03.209Z,95.30
2023-03-26T16:08:02.819Z,94.50
2023-03-26T16:10:59.010Z,94.90
2023-03-26T16:13:38.628Z,94.90
2023-03-26T16:16:06.858Z,96.10
2023-03-26T16:18:35.944Z,96.40
2023-03-26T16:21:32.213Z,95.90
2023-03-26T16:24:02.046Z,96.20
2023-03-26T16:26:52.092Z,95.90
2023-03-26T16:29:26.820Z,95.90
2023-03-26T16:32:16.214Z,94.80
2023-03-26T16:34:55.232Z,95.40
2023-03-26T16:37:39.686Z,94.70
2023-03-26T16:40:20.473Z,95.80
2023-03-26T16:42:50.341Z,95.60
2023-03-26T16:45:47.499Z,95.60
2023-03-26T16:48:24.500Z,95.60
2023-03-26T16:51:11.380Z,95.40
2023-03-26T16:53:59.901Z,95.40
2023-03-26T16:56:31.079Z,95.70
2023-03-26T16:59:09.318Z,95.60
2023-03-26T17:01:48.188Z,95.60
2023-03-26T17:04:27.265Z,95.70
2023-03-26T17:07:03.352Z,95.70
2023-03-26T17:09:51.862Z,96.00
2023-03-26T17:12:30.147Z,96.20
2023-03-26T17:15:18.392Z,95.70
2023-03-26T17:18:12.520Z,95.60
2023-03-26T17:20:59.614Z,95.40
2023-03-26T17:23:55.292Z,95.40
2023-03-26T17:26:46.520Z,95.20
2023-03-26T17:29:57.840Z,95.60
2023-03-26T17:32:25.303Z,95.20
2023-03-26T17:35:01.224Z,95.60
2023-03-26T17:37:37.082Z,95.30
2023-03-26T17:40:12.178Z,95.30
2023-03-26T17:42:39.054Z,95.50
2023-03-26T17:45:17.526Z,95.70
2023-03-26T17:47:52.998Z,96.00
2023-03-26T17:50:30.451Z,96.50
2023-03-26T17:53:13.383Z,96.70
2023-03-26T17:55:43.621Z,97.10
2023-03-26T17:58:30.084Z,97.30
2023-03-26T18:01:34.779Z,97.10
2023-03-26T18:04:09.915Z,97.10
2023-03-26T18:06:57.626Z,97.40
2023-03-26T18:09:49.145Z,97.20
2023-03-26T18:12:53.495Z,97.00
2023-03-26T18:15:28.366Z,97.30
2023-03-26T18:18:18.059Z,97.30
2023-03-26T18:20:50.110Z,97.40
2023-03-26T18:23:34.605Z,97.50
2023-03-26T18:26:12.469Z,97.00
2023-03-26T18:28:48.966Z,97.50
2023-03-26T18:31:20.438Z,97.50
2023-03-26T18:33:56.221Z,97.50
2023-03-26T18:36:26.243Z,97.30
2023-03-26T18:38:58.125Z,97.50
2023-03-26T18:41:31.211Z,97.10
2023-03-26T18:44:04.143Z,96.70
2023-03-26T18:46:32.627Z,97.20
2023-03-26T18:49:02.965Z,97.20
2023-03-26T18:51:32.011Z,97.50
2023-03-26T18:54:00.741Z,97.20
2023-03-26T18:56:37.388Z,97.40
2023-03-26T18:59:29.114Z,97.20
2023-03-26T19:01:57.680Z,97.10
2023-03-26T19:04:31.736Z,96.90
2023-03-26T19:06:59.935Z,96.80
2023-03-26T19:09:32.496Z,96.80
2023-03-26T19:12:20.105Z,97.10
2023-03-26T19:15:09.874Z,96.90
2023-03-26T19:17:46.523Z,97.30
2023-03-26T19:20:26.438Z,97.00
2023-03-26T19:22:55.302Z,96.70
2023-03-26T19:25:54.981Z,97.00
2023-03-26T19:28:40.374Z,96.80
2023-03-26T19:31:19.532Z,97.60
2023-03-26T19:33:57.686Z,97.30
2023-03-26T19:36:29.602Z,97.50
2023-03-26T19:38:59.154Z,97.40
2023-03-26T19:41:35.932Z,97.00
2023-03-26T19:44:16.300Z,97.40
2023-03-26T19:46:53.754Z,97.80
2023-03-26T19:49:30.903Z,98.00
2023-03-26T19:52:27.901Z,98.00
2023-03-26T19:55:00.073Z,97.80
2023-03-26T19:57:29.574Z,98.10
2023-03-26T19:59:56.702Z,98.90
2023-03-26T20:02:23.724Z,99.20
2023-03-26T20:04:57.244Z,99.00
2023-03-26T20:07:35.704Z,99.50
2023-03-26T20:10:05.673Z,99.90
2023-03-26T20:12:32.993Z,99.60
2023-03-26T20:15:00.778Z,99.70
2023-03-26T20:17:30.727Z,99.10
2023-03-26T20:19:57.758Z,99.20
2023-03-26T20:22:24.600Z,99.40
2023-03-26T20:24:51.700Z,99.20
2023-03-26T20:27:19.288Z,99.00
2023-03-26T20:29:46.600Z,98.80
2023-03-26T20:32:23.653Z,99.10
2023-03-26T20:34:51.693Z,99.10
2023-03-26T20:37:19.899Z,98.20
2023-03-26T20:39:46.855Z,97.70
2023-03-26T20:42:15.411Z,97.30
2023-03-26T20:44:42.913Z,97.10
2023-03-26T20:47:11.797Z,96.90
2023-03-26T20:49:38.971Z,96.50
2023-03-26T20:52:05.967Z,96.30
2023-03-26T20:54:32.934Z,96.40
2023-03-26T20:56:59.771Z,96.70
2023-03-26T20:59:30.405Z,96.30
2023-03-26T21:01:59.202Z,96.40
2023-03-26T21:04:27.100Z,96.30
2023-03-26T21:06:57.834Z,96.30
2023-03-26T21:09:35.443Z,96.50
2023-03-26T21:12:08.757Z,96.40
2023-03-26T21:14:41.881Z,96.20
2023-03-26T21:17:18.201Z,96.00
2023-03-26T21:19:45.716Z,95.70
2023-03-26T21:22:58.236Z,95.60
2023-03-26T21:25:46.200Z,96.40
2023-03-26T21:28:42.191Z,96.30
2023-03-26T21:31:19.261Z,96.40
2023-03-26T21:33:47.838Z,96.70
2023-03-26T21:36:15.937Z,97.10
2023-03-26T21:38:43.573Z,96.80
2023-03-26T21:41:24.149Z,97.60
2023-03-26T21:43:51.459Z,97.90
2023-03-26T21:46:18.442Z,98.20
2023-03-26T21:48:45.506Z,98.60
2023-03-26T21:51:14.861Z,98.80
2023-03-26T21:53:42.980Z,99.40
2023-03-26T21:56:37.018Z,99.40
2023-03-26T21:59:24.697Z,99.90
2023-03-26T22:02:48.527Z,99.90
2023-03-26T22:05:22.626Z,99.90
2023-03-26T22:07:54.868Z,99.90
2023-03-26T22:10:24.665Z,99.90
2023-03-26T22:12:51.855Z,99.90
2023-03-26T22:15:19.011Z,99.90
2023-03-26T22:17:53.644Z,99.90
2023-03-26T22:20:24.574Z,99.90
2023-03-26T22:22:53.083Z,99.90
2023-03-26T22:25:21.789Z,99.90
2023-03-26T22:27:49.415Z,99.90
2023-03-26T22:30:16.660Z,99.90
2023-03-26T22:32:44.656Z,99.90
2023-03-26T22:35:12.896Z,99.90
2023-03-26T22:37:40.445Z,99.90
2023-03-26T22:40:13.101Z,99.90
2023-03-26T22:42:40.984Z,99.90
2023-03-26T22:45:09.252Z,99.90
2023-03-26T22:47:36.039Z,99.90
2023-03-26T22:50:04.285Z,99.90
2023-03-26T22:52:31.370Z,99.90
2023-03-26T22:54:58.161Z,99.90
2023-03-26T22:57:24.921Z,99.90
2023-03-26T22:59:51.960Z,99.90
2023-03-26T23:02:19.241Z,99.90
2023-03-26T23:04:47.698Z,99.90
2023-03-26T23:07:14.814Z,99.90
2023-03-26T23:09:41.661Z,99.90
2023-03-26T23:12:08.415Z,99.90
2023-03-26T23:14:36.224Z,99.90
2023-03-26T23:17:02.887Z,99.90
2023-03-26T23:19:30.098Z,99.90
2023-03-26T23:21:57.373Z,99.90
2023-03-26T23:24:26.357Z,99.90
2023-03-26T23:26:53.251Z,99.90
2023-03-26T23:29:20.221Z,99.90
2023-03-26T23:31:47.145Z,99.90
2023-03-26T23:34:14.222Z,99.90
2023-03-26T23:36:41.922Z,99.90
2023-03-26T23:39:09.125Z,99.90
2023-03-26T23:41:36.923Z,99.90
2023-03-26T23:44:04.196Z,99.90
2023-03-26T23:46:33.640Z,99.90
2023-03-26T23:49:02.476Z,99.90
2023-03-26T23:51:30.364Z,99.90
2023-03-26T23:53:57.761Z,99.90
2023-03-26T23:56:24.409Z,99.90
2023-03-26T23:58:51.231Z,99.90
